Time;durP1;ratioP1;P1;durP2;ratioP2;P2;SDS_P1;SDS_P2;PMS_P1;PMS_P2;Temp;Humidity;BMP_temperature;BMP_pressure;BME280_temperature;BME280_humidity;BME280_pressure;Samples;Min_cycle;Max_cycle;Signal;HPM_P1;HPM_P2
2022/06/05 00:01:33;;;;;;;11.20;4.40;;;;;;;;;;5031675;28;20389;-70
2022/06/05 00:04:03;;;;;;;7.68;4.68;;;;;;;;;;5031672;28;20315;-71
2022/06/05 00:06:44;;;;;;;9.30;4.38;;;;;;;;;;5030735;28;20023;-71
2022/06/05 00:09:13;;;;;;;6.75;4.85;;;;;;;;;;5030000;28;20030;-71
2022/06/05 00:11:53;;;;;;;5.88;4.30;;;;;;;;;;5030058;28;20041;-70
2022/06/05 00:14:18;;;;;;;6.13;4.20;;;;;;;;;;5030788;28;20670;-71
2022/06/05 00:16:44;;;;;;;7.25;4.28;;;;;;;;;;5025470;28;20033;-71
2022/06/05 00:19:09;;;;;;;6.70;4.63;;;;;;;;;;5029693;28;20017;-70
2022/06/05 00:21:34;;;;;;;6.72;4.25;;;;;;;;;;5026168;28;20017;-71
2022/06/05 00:23:59;;;;;;;7.53;4.30;;;;;;;;;;5027902;28;20025;-70
2022/06/05 00:26:34;;;;;;;7.77;3.93;;;;;;;;;;5030976;28;20687;-71
2022/06/05 00:29:08;;;;;;;6.28;4.13;;;;;;;;;;5026524;28;20268;-71
2022/06/05 00:31:42;;;;;;;12.00;4.60;;;;;;;;;;5028317;28;20018;-71
2022/06/05 00:34:07;;;;;;;6.55;3.65;;;;;;;;;;5029735;28;20501;-71
2022/06/05 00:36:44;;;;;;;11.30;4.28;;;;;;;;;;5030131;28;20056;-71
2022/06/05 00:39:15;;;;;;;8.23;4.50;;;;;;;;;;5027420;28;20026;-72
2022/06/05 00:41:52;;;;;;;9.52;3.97;;;;;;;;;;5022748;28;20026;-71
2022/06/05 00:44:21;;;;;;;6.45;4.35;;;;;;;;;;5027543;28;20018;-71
2022/06/05 00:46:50;;;;;;;4.47;3.70;;;;;;;;;;5027720;28;20025;-71
2022/06/05 00:49:16;;;;;;;5.07;4.25;;;;;;;;;;5029421;28;20021;-71
2022/06/05 00:51:41;;;;;;;5.97;3.97;;;;;;;;;;5026898;28;20022;-71
2022/06/05 00:54:06;;;;;;;6.03;3.77;;;;;;;;;;5030524;28;20039;-72
2022/06/05 00:56:32;;;;;;;5.20;4.00;;;;;;;;;;5029810;28;20347;-71
2022/06/05 00:58:57;;;;;;;5.85;4.13;;;;;;;;;;5025335;28;20272;-72
2022/06/05 01:01:22;;;;;;;5.83;4.50;;;;;;;;;;5029801;28;20437;-71
2022/06/05 01:03:47;;;;;;;6.47;4.00;;;;;;;;;;5029617;28;20295;-71
2022/06/05 01:06:13;;;;;;;6.30;4.30;;;;;;;;;;5032102;28;20260;-72
2022/06/05 01:08:38;;;;;;;7.90;3.67;;;;;;;;;;5029709;28;20496;-72
2022/06/05 01:11:22;;;;;;;4.65;3.78;;;;;;;;;;5026675;28;20025;-71
2022/06/05 01:13:47;;;;;;;7.78;4.47;;;;;;;;;;5030105;28;20044;-72
2022/06/05 01:16:19;;;;;;;4.80;3.60;;;;;;;;;;5026068;28;20393;-72
2022/06/05 01:18:55;;;;;;;8.70;4.93;;;;;;;;;;5026412;28;20020;-72
2022/06/05 01:21:39;;;;;;;4.88;3.72;;;;;;;;;;5030210;28;20028;-72
2022/06/05 01:24:19;;;;;;;5.97;3.83;;;;;;;;;;5028454;28;20022;-72
2022/06/05 01:26:56;;;;;;;5.55;4.43;;;;;;;;;;5030906;28;20022;-71
2022/06/05 01:29:41;;;;;;;5.32;3.95;;;;;;;;;;5013398;28;20092;-71
2022/06/05 01:32:11;;;;;;;5.20;4.00;;;;;;;;;;5055858;23;20053;-67
2022/06/05 01:34:53;;;;;;;4.60;3.88;;;;;;;;;;5042200;28;20381;-67
2022/06/05 01:37:23;;;;;;;6.03;3.85;;;;;;;;;;5044248;28;20560;-67
2022/06/05 01:39:48;;;;;;;;;;;;;;;;;;5041853;28;20025;-67
2022/06/05 01:42:17;;;;;;;7.95;4.47;;;;;;;;;;5031048;28;19912;-67
2022/06/05 01:44:44;;;;;;;9.50;4.28;;;;;;;;;;5027406;28;20018;-67
2022/06/05 01:47:15;;;;;;;7.97;4.10;;;;;;;;;;5040644;28;20180;-67
2022/06/05 01:49:40;;;;;;;5.80;4.10;;;;;;;;;;5037304;28;20029;-67
2022/06/05 01:52:21;;;;;;;10.27;4.27;;;;;;;;;;5029757;28;20013;-67
2022/06/05 01:54:50;;;;;;;6.30;4.18;;;;;;;;;;5034126;28;20272;-67
2022/06/05 01:57:16;;;;;;;6.55;4.35;;;;;;;;;;5042488;28;20427;-67
2022/06/05 01:59:46;;;;;;;5.22;4.22;;;;;;;;;;5030685;28;20025;-67
2022/06/05 02:02:14;;;;;;;5.43;4.10;;;;;;;;;;5034731;28;20025;-67
2022/06/05 02:04:48;;;;;;;8.75;4.00;;;;;;;;;;5034205;28;20025;-67
2022/06/05 02:07:24;;;;;;;6.72;4.40;;;;;;;;;;5032075;28;20018;-67
2022/06/05 02:09:55;;;;;;;4.70;3.80;;;;;;;;;;5030020;28;20096;-68
2022/06/05 02:12:21;;;;;;;5.55;4.20;;;;;;;;;;5031672;28;20026;-67
2022/06/05 02:14:46;;;;;;;7.55;3.92;;;;;;;;;;5035441;28;20029;-66
2022/06/05 02:17:13;;;;;;;4.87;3.80;;;;;;;;;;5040984;28;20102;-67
2022/06/05 02:19:38;;;;;;;6.95;3.88;;;;;;;;;;5036072;28;20684;-67
2022/06/05 02:22:20;;;;;;;9.10;4.47;;;;;;;;;;5040648;28;20266;-67
2022/06/05 02:24:45;;;;;;;3.92;3.30;;;;;;;;;;5041266;28;20079;-67
2022/06/05 02:27:10;;;;;;;10.73;4.67;;;;;;;;;;5040307;28;20425;-67
2022/06/05 02:29:36;;;;;;;5.45;4.35;;;;;;;;;;5040441;28;20268;-67
2022/06/05 02:32:19;;;;;;;5.68;4.63;;;;;;;;;;5029840;28;20057;-67
2022/06/05 02:34:49;;;;;;;4.93;4.03;;;;;;;;;;5032713;28;20112;-67
2022/06/05 02:37:28;;;;;;;5.70;3.88;;;;;;;;;;5040569;28;20430;-66
2022/06/05 02:39:56;;;;;;;10.10;4.30;;;;;;;;;;5037832;28;20295;-66
2022/06/05 02:42:21;;;;;;;4.00;3.58;;;;;;;;;;5034738;28;20040;-67
2022/06/05 02:44:52;;;;;;;6.47;4.18;;;;;;;;;;5037316;28;20437;-66
2022/06/05 02:47:20;;;;;;;5.20;3.92;;;;;;;;;;5035381;28;20033;-66
2022/06/05 02:50:04;;;;;;;5.50;4.15;;;;;;;;;;5029031;28;20026;-67
2022/06/05 02:52:30;;;;;;;10.05;4.38;;;;;;;;;;5027998;28;20018;-67
2022/06/05 02:54:58;;;;;;;4.43;3.88;;;;;;;;;;5031054;28;20044;-67
2022/06/05 02:57:24;;;;;;;5.53;4.00;;;;;;;;;;5031584;28;20022;-67
2022/06/05 02:59:49;;;;;;;6.80;4.00;;;;;;;;;;5022933;28;20025;-66
2022/06/05 03:04:58;;;;;;;6.60;4.35;;;;;;;;;;5020562;28;20295;-66
2022/06/05 03:07:24;;;;;;;7.30;4.50;;;;;;;;;;5025900;28;20025;-66
2022/06/05 03:09:50;;;;;;;7.10;3.67;;;;;;;;;;5036356;28;20025;-69
2022/06/05 03:12:15;;;;;;;7.97;5.37;;;;;;;;;;5027847;28;20022;-66
2022/06/05 03:14:40;;;;;;;6.33;3.73;;;;;;;;;;5031340;28;20284;-67
2022/06/05 03:17:05;;;;;;;16.03;3.40;;;;;;;;;;5028816;28;20273;-66
2022/06/05 03:19:31;;;;;;;5.75;4.15;;;;;;;;;;5029257;28;20281;-67
2022/06/05 03:21:56;;;;;;;6.60;3.45;;;;;;;;;;5030893;28;20029;-66
2022/06/05 03:24:21;;;;;;;6.10;4.18;;;;;;;;;;5032111;28;20053;-68
2022/06/05 03:26:46;;;;;;;7.00;3.92;;;;;;;;;;5040055;28;20115;-68
2022/06/05 03:29:11;;;;;;;4.80;4.10;;;;;;;;;;5036174;28;20032;-68
2022/06/05 03:31:37;;;;;;;5.00;3.67;;;;;;;;;;5034946;28;20375;-67
2022/06/05 03:34:02;;;;;;;7.00;4.20;;;;;;;;;;5036842;28;20294;-67
2022/06/05 03:36:27;;;;;;;5.72;3.80;;;;;;;;;;5037563;28;20032;-67
2022/06/05 03:38:53;;;;;;;5.40;4.05;;;;;;;;;;5038214;28;20052;-68
2022/06/05 03:41:18;;;;;;;7.88;3.58;;;;;;;;;;5029942;28;20025;-67
2022/06/05 03:43:44;;;;;;;6.57;4.40;;;;;;;;;;5033793;28;20025;-67
2022/06/05 03:46:11;;;;;;;12.63;4.47;;;;;;;;;;5031027;28;20049;-67
2022/06/05 03:48:37;;;;;;;5.40;4.32;;;;;;;;;;5034815;28;20032;-67
2022/06/05 03:51:10;;;;;;;5.47;4.30;;;;;;;;;;5029370;28;20448;-67
2022/06/05 03:53:36;;;;;;;5.43;4.18;;;;;;;;;;5030901;28;20037;-67
2022/06/05 03:56:01;;;;;;;5.43;3.92;;;;;;;;;;5031220;28;20045;-67
2022/06/05 03:58:26;;;;;;;6.05;4.53;;;;;;;;;;5029317;28;20029;-66
2022/06/05 04:00:51;;;;;;;6.15;4.45;;;;;;;;;;5030964;28;20377;-66
2022/06/05 04:03:17;;;;;;;6.40;4.40;;;;;;;;;;5030579;28;20437;-66
2022/06/05 04:05:43;;;;;;;7.72;4.13;;;;;;;;;;5029453;28;20413;-67
2022/06/05 04:08:08;;;;;;;7.05;4.55;;;;;;;;;;5029629;28;20059;-66
2022/06/05 04:10:33;;;;;;;9.73;3.97;;;;;;;;;;5035217;28;20064;-67
2022/06/05 04:12:58;;;;;;;7.70;4.40;;;;;;;;;;5028514;28;20272;-67
2022/06/05 04:15:24;;;;;;;6.93;4.73;;;;;;;;;;5029745;28;20271;-67
2022/06/05 04:17:49;;;;;;;6.30;4.97;;;;;;;;;;5028923;28;21068;-67
2022/06/05 04:20:14;;;;;;;5.53;4.35;;;;;;;;;;5030260;28;21878;-67
2022/06/05 04:22:40;;;;;;;5.17;4.23;;;;;;;;;;5029905;28;20488;-68
2022/06/05 04:25:06;;;;;;;7.65;4.32;;;;;;;;;;5027119;28;20277;-67
2022/06/05 04:27:32;;;;;;;12.43;4.35;;;;;;;;;;5032280;28;20024;-67
2022/06/05 04:29:58;;;;;;;7.78;4.55;;;;;;;;;;5036952;28;20028;-67
2022/06/05 04:32:23;;;;;;;6.13;4.53;;;;;;;;;;5031802;28;20493;-67
2022/06/05 04:34:49;;;;;;;5.67;4.37;;;;;;;;;;5029104;28;20032;-67
2022/06/05 04:37:14;;;;;;;4.85;4.28;;;;;;;;;;5034588;28;20545;-68
2022/06/05 04:39:40;;;;;;;8.17;4.33;;;;;;;;;;5033400;28;20402;-67
2022/06/05 04:42:05;;;;;;;3.95;3.50;;;;;;;;;;5029500;28;20061;-67
2022/06/05 04:44:30;;;;;;;16.20;5.50;;;;;;;;;;5029366;28;20017;-68
2022/06/05 04:46:55;;;;;;;6.03;4.87;;;;;;;;;;5030282;28;20018;-67
2022/06/05 04:49:21;;;;;;;11.40;4.67;;;;;;;;;;5032368;28;20406;-67
2022/06/05 04:51:46;;;;;;;8.00;4.17;;;;;;;;;;5032677;28;20072;-67
2022/06/05 04:54:13;;;;;;;5.60;4.23;;;;;;;;;;5030551;28;20342;-67
2022/06/05 04:56:38;;;;;;;7.85;4.57;;;;;;;;;;5037591;28;20685;-67
2022/06/05 04:59:03;;;;;;;7.60;3.97;;;;;;;;;;5030356;28;20096;-66
2022/06/05 05:01:30;;;;;;;9.85;4.72;;;;;;;;;;5031256;28;20104;-68
2022/06/05 05:04:15;;;;;;;9.13;5.00;;;;;;;;;;5027981;28;20079;-68
2022/06/05 05:06:42;;;;;;;8.40;4.75;;;;;;;;;;5023405;28;20053;-66
2022/06/05 05:09:07;;;;;;;5.82;4.60;;;;;;;;;;5034065;28;20116;-67
2022/06/05 05:11:33;;;;;;;9.50;4.65;;;;;;;;;;5033486;28;20029;-67
2022/06/05 05:13:58;;;;;;;5.70;3.75;;;;;;;;;;5029551;28;20025;-66
2022/06/05 05:16:24;;;;;;;7.43;4.82;;;;;;;;;;5028934;28;20094;-67
2022/06/05 05:18:50;;;;;;;5.53;3.45;;;;;;;;;;5027693;28;20401;-66
2022/06/05 05:21:17;;;;;;;7.53;4.53;;;;;;;;;;5029345;28;20022;-66
2022/06/05 05:23:43;;;;;;;8.95;4.88;;;;;;;;;;5030555;28;20021;-66
2022/06/05 05:26:10;;;;;;;8.35;5.07;;;;;;;;;;5028725;28;20401;-66
2022/06/05 05:28:35;;;;;;;6.93;5.18;;;;;;;;;;5034494;28;20351;-67
2022/06/05 05:31:00;;;;;;;4.35;2.60;;;;;;;;;;5030037;28;20162;-67
2022/06/05 05:33:26;;;;;;;6.05;4.53;;;;;;;;;;5029924;28;20032;-67
2022/06/05 05:35:51;;;;;;;3.67;3.37;;;;;;;;;;5030666;28;20023;-67
2022/06/05 05:38:17;;;;;;;8.57;4.95;;;;;;;;;;5028288;28;20280;-68
2022/06/05 05:43:25;;;;;;;5.10;3.95;;;;;;;;;;5025753;28;20528;-67
2022/06/05 05:45:51;;;;;;;9.70;4.90;;;;;;;;;;5032113;28;20026;-67
2022/06/05 05:48:16;;;;;;;5.95;5.18;;;;;;;;;;5036153;28;20272;-66
2022/06/05 05:50:45;;;;;;;5.78;4.57;;;;;;;;;;5028667;28;20014;-67
2022/06/05 05:53:10;;;;;;;9.10;4.85;;;;;;;;;;5028975;28;20468;-67
2022/06/05 05:55:35;;;;;;;7.43;4.78;;;;;;;;;;5027937;28;20013;-66
2022/06/05 05:58:01;;;;;;;6.78;5.40;;;;;;;;;;5029086;28;20041;-67
2022/06/05 06:00:26;;;;;;;8.98;5.70;;;;;;;;;;5028454;28;20037;-67
2022/06/05 06:02:51;;;;;;;7.88;4.75;;;;;;;;;;5029265;28;20024;-66
2022/06/05 06:05:18;;;;;;;8.30;5.23;;;;;;;;;;5030425;28;20055;-66
2022/06/05 06:07:44;;;;;;;6.60;5.38;;;;;;;;;;5025326;28;20379;-66
2022/06/05 06:10:10;;;;;;;10.38;4.93;;;;;;;;;;5035565;28;20104;-66
2022/06/05 06:12:35;;;;;;;9.48;7.05;;;;;;;;;;5028715;28;20026;-66
2022/06/05 06:15:00;;;;;;;6.07;4.88;;;;;;;;;;5028474;28;20030;-66
2022/06/05 06:17:26;;;;;;;7.15;5.53;;;;;;;;;;5029486;28;20033;-66
2022/06/05 06:19:51;;;;;;;7.05;5.20;;;;;;;;;;5028548;28;20497;-67
2022/06/05 06:22:16;;;;;;;6.83;4.57;;;;;;;;;;5033897;28;20402;-67
2022/06/05 06:24:42;;;;;;;9.88;6.57;;;;;;;;;;5032138;28;20298;-67
2022/06/05 06:27:07;;;;;;;5.30;4.73;;;;;;;;;;5029450;28;20497;-66
2022/06/05 06:29:32;;;;;;;6.80;5.07;;;;;;;;;;5028687;28;20025;-67
2022/06/05 06:31:57;;;;;;;9.73;5.10;;;;;;;;;;5028595;28;20268;-67
2022/06/05 06:34:24;;;;;;;5.90;4.80;;;;;;;;;;5029464;28;20458;-67
2022/06/05 06:36:49;;;;;;;6.63;5.30;;;;;;;;;;5029430;28;20272;-67
2022/06/05 06:39:14;;;;;;;7.20;5.40;;;;;;;;;;5028258;28;20032;-67
2022/06/05 06:41:39;;;;;;;8.47;4.90;;;;;;;;;;5028500;28;20059;-66
2022/06/05 06:44:05;;;;;;;8.63;4.90;;;;;;;;;;5030081;28;20764;-67
2022/06/05 06:46:31;;;;;;;6.82;5.15;;;;;;;;;;5029396;28;20066;-67
2022/06/05 06:48:56;;;;;;;5.88;4.78;;;;;;;;;;5031989;28;20036;-67
2022/06/05 06:51:21;;;;;;;8.55;5.00;;;;;;;;;;5034875;28;20017;-66
2022/06/05 06:53:47;;;;;;;8.38;5.30;;;;;;;;;;5033058;28;20025;-67
2022/06/05 06:56:20;;;;;;;8.73;4.53;;;;;;;;;;5033930;28;20021;-67
2022/06/05 06:58:46;;;;;;;6.28;4.80;;;;;;;;;;5031425;28;20496;-67
2022/06/05 07:01:12;;;;;;;11.93;5.55;;;;;;;;;;5032827;28;20025;-67
2022/06/05 07:03:37;;;;;;;7.53;5.78;;;;;;;;;;5033811;28;20028;-67
2022/06/05 07:06:03;;;;;;;5.13;4.63;;;;;;;;;;5033042;28;20017;-67
2022/06/05 07:08:29;;;;;;;10.90;4.47;;;;;;;;;;5031997;28;20570;-67
2022/06/05 07:10:54;;;;;;;8.88;5.80;;;;;;;;;;5031668;28;20060;-67
2022/06/05 07:13:19;;;;;;;6.27;5.33;;;;;;;;;;5029238;28;20516;-67
2022/06/05 07:15:44;;;;;;;9.03;5.53;;;;;;;;;;5031355;28;20100;-67
2022/06/05 07:18:09;;;;;;;8.70;5.20;;;;;;;;;;5032857;28;20418;-67
2022/06/05 07:20:36;;;;;;;7.17;4.57;;;;;;;;;;5033197;28;20268;-67
2022/06/05 07:23:01;;;;;;;6.63;5.10;;;;;;;;;;5032871;28;20652;-67
2022/06/05 07:25:27;;;;;;;7.13;4.82;;;;;;;;;;5032464;28;20027;-67
2022/06/05 07:27:52;;;;;;;5.80;4.88;;;;;;;;;;5033653;28;20197;-67
2022/06/05 07:30:17;;;;;;;9.68;5.50;;;;;;;;;;5030952;28;20025;-67
2022/06/05 07:32:42;;;;;;;7.27;5.57;;;;;;;;;;5031768;28;20021;-66
2022/06/05 07:35:09;;;;;;;7.20;5.10;;;;;;;;;;5032166;28;20279;-66
2022/06/05 07:37:34;;;;;;;6.60;5.20;;;;;;;;;;5032059;28;20045;-68
2022/06/05 07:39:59;;;;;;;6.97;4.93;;;;;;;;;;5031206;28;20087;-67
2022/06/05 07:42:25;;;;;;;9.17;4.70;;;;;;;;;;5032770;28;20252;-67
2022/06/05 07:44:50;;;;;;;7.63;5.07;;;;;;;;;;5032198;28;20076;-67
2022/06/05 07:47:15;;;;;;;5.97;4.23;;;;;;;;;;5032860;28;20457;-67
2022/06/05 07:49:40;;;;;;;9.63;5.07;;;;;;;;;;5030519;28;20013;-66
2022/06/05 07:54:50;;;;;;;7.80;5.25;;;;;;;;;;5032857;28;20080;-67
2022/06/05 07:57:18;;;;;;;7.13;5.30;;;;;;;;;;5031380;28;20025;-67
2022/06/05 07:59:45;;;;;;;5.63;3.92;;;;;;;;;;5030377;28;20092;-66
2022/06/05 08:02:12;;;;;;;10.85;4.32;;;;;;;;;;5031744;28;20400;-67
2022/06/05 08:04:38;;;;;;;6.57;4.95;;;;;;;;;;5030955;28;21850;-67
2022/06/05 08:07:05;;;;;;;5.65;5.03;;;;;;;;;;5029684;28;20025;-67
2022/06/05 08:09:30;;;;;;;9.20;4.97;;;;;;;;;;5033055;28;20017;-67
2022/06/05 08:11:56;;;;;;;6.95;4.97;;;;;;;;;;5031950;28;20028;-66
2022/06/05 08:14:21;;;;;;;8.10;4.78;;;;;;;;;;5032288;28;20018;-66
2022/06/05 08:16:47;;;;;;;8.30;5.05;;;;;;;;;;5031673;28;20018;-66
2022/06/05 08:19:13;;;;;;;7.75;5.28;;;;;;;;;;5032114;28;20287;-66
2022/06/05 08:21:39;;;;;;;5.70;4.50;;;;;;;;;;5030817;28;20466;-67
2022/06/05 08:24:05;;;;;;;5.97;4.70;;;;;;;;;;5030381;28;20051;-67
2022/06/05 08:26:30;;;;;;;9.40;5.70;;;;;;;;;;5032172;28;20359;-67
2022/06/05 08:28:55;;;;;;;4.22;3.70;;;;;;;;;;5030986;28;20470;-66
2022/06/05 08:31:20;;;;;;;7.77;5.50;;;;;;;;;;5031791;28;20021;-67
2022/06/05 08:33:46;;;;;;;14.27;5.20;;;;;;;;;;5030695;28;20345;-67
2022/06/05 08:36:12;;;;;;;6.78;5.53;;;;;;;;;;5031927;28;20044;-68
2022/06/05 08:41:33;;;;;;;9.93;5.68;;;;;;;;;;5027030;28;20274;-67
2022/06/05 08:44:09;;;;;;;9.32;4.68;;;;;;;;;;5028958;28;20604;-67
2022/06/05 08:46:38;;;;;;;7.47;5.15;;;;;;;;;;5030950;28;20017;-67
2022/06/05 08:49:07;;;;;;;6.60;4.60;;;;;;;;;;5030876;28;20030;-66
2022/06/05 08:51:50;;;;;;;8.95;5.28;;;;;;;;;;5028758;28;20017;-67
2022/06/05 08:54:21;;;;;;;8.52;5.15;;;;;;;;;;5031216;28;20405;-68
2022/06/05 08:56:48;;;;;;;9.23;5.53;;;;;;;;;;5028422;28;20091;-67
2022/06/05 08:59:16;;;;;;;9.05;5.47;;;;;;;;;;5030110;28;20025;-67
2022/06/05 09:01:47;;;;;;;6.90;4.50;;;;;;;;;;5030073;28;20469;-68
2022/06/05 09:04:15;;;;;;;8.77;4.85;;;;;;;;;;5035394;28;20024;-67
2022/06/05 09:06:45;;;;;;;7.95;3.15;;;;;;;;;;5028007;28;20386;-68
2022/06/05 09:09:15;;;;;;;4.82;3.60;;;;;;;;;;5031699;28;20017;-67
2022/06/05 09:11:46;;;;;;;6.32;4.22;;;;;;;;;;5037005;28;20630;-67
2022/06/05 09:14:16;;;;;;;7.50;4.70;;;;;;;;;;5029131;28;20026;-67
2022/06/05 09:16:44;;;;;;;16.17;6.20;;;;;;;;;;5030282;28;20036;-68
2022/06/05 09:19:14;;;;;;;4.40;3.45;;;;;;;;;;5030255;28;20029;-67
2022/06/05 09:21:42;;;;;;;6.43;4.45;;;;;;;;;;5032730;28;20028;-66
2022/06/05 09:24:13;;;;;;;7.43;5.40;;;;;;;;;;5029732;28;20033;-66
2022/06/05 09:27:04;;;;;;;5.72;4.03;;;;;;;;;;5028281;28;20096;-67
2022/06/05 09:29:48;;;;;;;6.55;4.88;;;;;;;;;;5021662;28;20432;-67
2022/06/05 09:32:13;;;;;;;5.63;4.45;;;;;;;;;;5027863;28;20029;-67
2022/06/05 09:34:40;;;;;;;11.23;6.93;;;;;;;;;;5029967;28;20571;-68
2022/06/05 09:37:38;;;;;;;11.25;6.78;;;;;;;;;;5031668;28;20040;-67
2022/06/05 09:40:38;;;;;;;7.55;6.78;;;;;;;;;;4996406;28;20041;-68
2022/06/05 09:43:11;;;;;;;4.60;4.00;;;;;;;;;;4973775;28;20488;-68
2022/06/05 09:45:47;;;;;;;12.98;7.75;;;;;;;;;;5020366;28;20034;-67
2022/06/05 09:48:24;;;;;;;9.85;7.78;;;;;;;;;;5030083;28;20014;-68
2022/06/05 09:50:49;;;;;;;14.98;8.15;;;;;;;;;;5032304;28;20025;-66
2022/06/05 09:53:18;;;;;;;9.57;7.22;;;;;;;;;;5034470;28;20032;-66
2022/06/05 09:55:48;;;;;;;8.07;5.43;;;;;;;;;;5028709;28;20033;-66
2022/06/05 09:58:27;;;;;;;14.13;9.75;;;;;;;;;;5030463;28;20024;-66
2022/06/05 10:00:54;;;;;;;15.60;10.30;;;;;;;;;;5028768;28;20071;-66
2022/06/05 10:03:21;;;;;;;17.33;10.55;;;;;;;;;;5029240;28;20382;-68
2022/06/05 10:06:05;;;;;;;17.17;10.75;;;;;;;;;;5029191;28;20025;-66
2022/06/05 10:08:37;;;;;;;13.68;10.55;;;;;;;;;;5034035;28;20044;-66
2022/06/05 10:11:03;;;;;;;17.42;10.63;;;;;;;;;;5036779;28;20351;-66
2022/06/05 10:13:42;;;;;;;15.13;10.90;;;;;;;;;;5028027;28;20048;-66
2022/06/05 10:16:14;;;;;;;12.97;10.70;;;;;;;;;;5027006;28;20032;-66
2022/06/05 10:18:45;;;;;;;12.73;10.82;;;;;;;;;;5029381;28;20036;-66
2022/06/05 10:21:11;;;;;;;12.82;10.25;;;;;;;;;;5026764;28;20064;-66
2022/06/05 10:23:39;;;;;;;14.98;8.88;;;;;;;;;;5033104;28;20014;-66
2022/06/05 10:26:04;;;;;;;11.05;7.90;;;;;;;;;;5042559;28;20025;-66
2022/06/05 10:28:31;;;;;;;13.23;9.27;;;;;;;;;;5038852;28;20544;-66
2022/06/05 10:30:57;;;;;;;13.35;8.90;;;;;;;;;;5038633;28;20020;-66
2022/06/05 10:33:41;;;;;;;12.70;7.50;;;;;;;;;;5029543;28;20378;-67
2022/06/05 10:36:07;;;;;;;15.60;11.40;;;;;;;;;;5027990;28;20022;-67
2022/06/05 10:38:37;;;;;;;15.77;11.45;;;;;;;;;;5026850;28;20025;-67
2022/06/05 10:41:15;;;;;;;16.50;11.82;;;;;;;;;;5031813;28;20026;-69
2022/06/05 10:43:41;;;;;;;17.10;12.57;;;;;;;;;;5027032;28;20021;-67
2022/06/05 10:46:07;;;;;;;17.85;13.05;;;;;;;;;;5028380;28;20386;-67
2022/06/05 10:48:33;;;;;;;16.27;12.07;;;;;;;;;;5029492;28;20017;-67
2022/06/05 10:51:03;;;;;;;15.02;12.73;;;;;;;;;;5028263;28;20020;-67
2022/06/05 10:53:28;;;;;;;;;;;;;;;;;;5029638;28;20517;-66
2022/06/05 10:56:05;;;;;;;18.85;12.52;;;;;;;;;;5027370;28;20058;-67
2022/06/05 10:58:36;;;;;;;17.25;12.32;;;;;;;;;;5028835;28;20025;-67
2022/06/05 11:01:19;;;;;;;18.58;14.30;;;;;;;;;;5028170;28;20025;-67
2022/06/05 11:04:00;;;;;;;22.13;14.02;;;;;;;;;;5028933;28;20029;-67
2022/06/05 11:06:36;;;;;;;15.20;11.73;;;;;;;;;;5026980;28;20555;-66
2022/06/05 11:09:14;;;;;;;15.85;13.07;;;;;;;;;;5031304;28;20497;-66
2022/06/05 11:14:33;;;;;;;21.33;11.93;;;;;;;;;;5023664;28;20032;-66
2022/06/05 11:17:07;;;;;;;15.38;12.57;;;;;;;;;;5026432;28;20474;-66
2022/06/05 11:19:42;;;;;;;20.05;11.02;;;;;;;;;;5028293;28;20037;-65
2022/06/05 11:22:10;;;;;;;13.52;11.60;;;;;;;;;;5026900;28;20109;-67
2022/06/05 11:24:43;;;;;;;15.95;12.05;;;;;;;;;;5027586;28;20076;-66
2022/06/05 11:27:14;;;;;;;17.95;12.20;;;;;;;;;;5029137;28;20022;-66
2022/06/05 11:29:52;;;;;;;15.95;11.60;;;;;;;;;;5033736;28;20387;-66
2022/06/05 11:32:23;;;;;;;11.65;10.18;;;;;;;;;;5035505;28;20053;-67
2022/06/05 11:34:54;;;;;;;13.18;10.63;;;;;;;;;;5030342;28;20112;-66
2022/06/05 11:37:38;;;;;;;11.30;9.70;;;;;;;;;;5028708;28;20454;-67
2022/06/05 11:40:15;;;;;;;12.38;9.20;;;;;;;;;;5027294;28;20034;-66
2022/06/05 11:42:56;;;;;;;10.60;7.72;;;;;;;;;;5031360;28;20029;-66
2022/06/05 11:45:35;;;;;;;12.88;8.18;;;;;;;;;;5035618;28;20017;-67
2022/06/05 11:48:04;;;;;;;9.40;8.32;;;;;;;;;;5033152;28;20411;-67
2022/06/05 11:50:39;;;;;;;11.73;8.23;;;;;;;;;;5029707;28;20021;-66
2022/06/05 11:53:04;;;;;;;15.32;9.00;;;;;;;;;;5031331;28;20026;-67
2022/06/05 11:55:30;;;;;;;11.98;8.57;;;;;;;;;;5030075;28;20020;-67
2022/06/05 11:58:08;;;;;;;9.13;8.10;;;;;;;;;;5030203;28;20021;-66
2022/06/05 12:00:33;;;;;;;8.85;7.55;;;;;;;;;;5026773;28;20821;-66
2022/06/05 12:03:17;;;;;;;10.23;7.68;;;;;;;;;;5028297;28;20068;-66
2022/06/05 12:05:42;;;;;;;10.55;7.45;;;;;;;;;;5028169;28;20022;-65
2022/06/05 12:08:31;;;;;;;9.50;7.70;;;;;;;;;;5030739;28;20021;-65
2022/06/05 12:11:08;;;;;;;9.32;7.68;;;;;;;;;;5027656;28;20083;-65
2022/06/05 12:13:33;;;;;;;11.50;6.68;;;;;;;;;;5030952;28;20096;-65
2022/06/05 12:16:04;;;;;;;9.90;7.17;;;;;;;;;;5032983;28;20120;-66
2022/06/05 12:18:32;;;;;;;10.57;7.28;;;;;;;;;;5026059;28;20284;-65
2022/06/05 12:21:10;;;;;;;8.35;7.43;;;;;;;;;;5034496;28;20256;-65
2022/06/05 12:23:41;;;;;;;9.30;8.15;;;;;;;;;;5029284;28;20027;-65
2022/06/05 12:26:29;;;;;;;11.13;7.30;;;;;;;;;;5030460;28;20022;-65
2022/06/05 12:29:08;;;;;;;8.82;7.75;;;;;;;;;;5003250;28;20028;-65
2022/06/05 12:31:38;;;;;;;8.45;7.18;;;;;;;;;;5040673;28;20477;-65
2022/06/05 12:34:10;;;;;;;12.00;9.20;;;;;;;;;;5037017;28;20211;-65
2022/06/05 12:36:40;;;;;;;14.63;9.00;;;;;;;;;;5034508;28;20037;-65
2022/06/05 12:39:13;;;;;;;11.43;9.18;;;;;;;;;;5033810;28;20057;-65
2022/06/05 12:41:44;;;;;;;14.85;8.70;;;;;;;;;;5028685;28;20464;-66
2022/06/05 12:44:18;;;;;;;10.05;8.13;;;;;;;;;;5034889;28;20022;-66
2022/06/05 12:46:45;;;;;;;11.63;8.38;;;;;;;;;;5035030;28;20024;-65
2022/06/05 12:49:24;;;;;;;8.20;6.18;;;;;;;;;;5030401;28;20366;-65
2022/06/05 12:52:02;;;;;;;8.40;7.47;;;;;;;;;;5033555;28;20021;-65
2022/06/05 12:54:33;;;;;;;11.15;8.30;;;;;;;;;;5026907;28;20021;-65
2022/06/05 12:57:04;;;;;;;11.18;9.10;;;;;;;;;;5028857;28;20413;-65
2022/06/05 12:59:43;;;;;;;12.52;8.82;;;;;;;;;;5035151;28;20549;-65
2022/06/05 13:02:28;;;;;;;9.95;7.35;;;;;;;;;;5034416;28;20029;-65
2022/06/05 13:05:01;;;;;;;13.10;7.93;;;;;;;;;;5024855;28;20033;-65
2022/06/05 13:07:31;;;;;;;12.50;7.68;;;;;;;;;;5030297;28;20458;-65
2022/06/05 13:10:01;;;;;;;9.52;5.43;;;;;;;;;;5033327;28;20474;-65
2022/06/05 13:12:30;;;;;;;5.35;3.88;;;;;;;;;;5031274;28;20032;-65
2022/06/05 13:15:16;;;;;;;5.85;4.10;;;;;;;;;;5034168;28;20060;-65
2022/06/05 13:17:46;;;;;;;6.55;4.25;;;;;;;;;;5028381;28;20027;-65
2022/06/05 13:20:11;;;;;;;;;;;;;;;;;;5028477;28;20025;-66
2022/06/05 13:22:43;;;;;;;8.25;6.18;;;;;;;;;;5026052;28;19920;-66
2022/06/05 13:25:21;;;;;;;9.35;6.82;;;;;;;;;;5036597;28;20064;-66
2022/06/05 13:28:05;;;;;;;9.70;6.47;;;;;;;;;;5031126;28;20017;-66
2022/06/05 13:30:32;;;;;;;10.65;8.05;;;;;;;;;;5026691;28;20014;-65
2022/06/05 13:33:19;;;;;;;7.75;5.00;;;;;;;;;;5045711;22;20085;-89
2022/06/05 13:35:56;;;;;;;8.15;5.18;;;;;;;;;;5021254;28;20017;-88
2022/06/05 13:38:49;;;;;;;8.77;6.25;;;;;;;;;;5020006;28;20536;-89
2022/06/05 13:41:26;;;;;;;9.43;5.72;;;;;;;;;;5023056;28;20030;-87
2022/06/05 13:44:16;;;;;;;10.48;5.50;;;;;;;;;;5012776;28;20367;-88
2022/06/05 13:47:05;;;;;;;5.25;3.38;;;;;;;;;;5022006;28;20017;-87
2022/06/05 13:49:54;;;;;;;5.07;4.15;;;;;;;;;;5016356;28;20064;-90
2022/06/05 13:52:28;;;;;;;17.83;4.20;;;;;;;;;;5024940;28;20025;-89
2022/06/05 13:55:16;;;;;;;8.15;6.78;;;;;;;;;;5019276;28;20386;-88
2022/06/05 13:57:45;;;;;;;8.80;7.00;;;;;;;;;;5028472;28;20033;-87
2022/06/05 14:00:39;;;;;;;14.00;7.53;;;;;;;;;;5019083;28;20057;-88
2022/06/05 14:03:16;;;;;;;9.60;7.40;;;;;;;;;;5022062;28;20029;-90
2022/06/05 14:06:04;;;;;;;10.73;6.65;;;;;;;;;;5022590;28;20017;-88
2022/06/05 14:08:58;;;;;;;;;;;;;;;;;;;;;
2022/06/05 14:11:38;;;;;;;8.45;5.20;;;;;;;;;;5021350;28;20051;-88
2022/06/05 14:14:07;;;;;;;8.18;6.63;;;;;;;;;;5021601;28;20052;-87
2022/06/05 14:16:35;;;;;;;4.93;2.85;;;;;;;;;;5012009;28;20037;-88
2022/06/05 14:19:05;;;;;;;9.18;6.00;;;;;;;;;;5024670;28;20018;-89
2022/06/05 14:21:30;;;;;;;;;;;;;;;;;;5019603;28;20116;-89
2022/06/05 14:24:05;;;;;;;9.23;6.73;;;;;;;;;;5021814;28;19969;-87
2022/06/05 14:26:34;;;;;;;20.27;8.20;;;;;;;;;;5029089;28;20092;-91
2022/06/05 14:29:20;;;;;;;8.18;5.68;;;;;;;;;;5018801;28;20715;-92
2022/06/05 14:32:22;;;;;;;6.68;5.47;;;;;;;;;;5020915;28;20021;-91
2022/06/05 14:35:11;;;;;;;5.90;5.03;;;;;;;;;;5019123;28;20076;-89
2022/06/05 14:37:50;;;;;;;;;;;;;;;;;;;;;
2022/06/05 14:40:36;;;;;;;5.40;4.10;;;;;;;;;;5022330;28;20014;-88
2022/06/05 14:43:23;;;;;;;6.75;4.22;;;;;;;;;;5025580;28;20037;-89
2022/06/05 14:46:20;;;;;;;3.40;2.47;;;;;;;;;;5022232;28;20072;-91
2022/06/05 14:49:37;;;;;;;5.30;3.55;;;;;;;;;;5035484;28;20052;-92
2022/06/05 14:51:55;;;;;;;;;;;;;;;;;;5015760;28;20014;-88
2022/06/05 14:57:51;;;;;;;6.30;3.65;;;;;;;;;;5028100;28;19909;-88
2022/06/05 14:57:56;;;;;;;6.85;5.28;;;;;;;;;;5014983;28;20029;-89
2022/06/05 15:00:33;;;;;;;6.22;5.32;;;;;;;;;;4964778;28;20042;-88
2022/06/05 15:03:07;;;;;;;6.30;5.38;;;;;;;;;;4969408;28;20015;-88
2022/06/05 15:05:43;;;;;;;12.50;6.43;;;;;;;;;;4979595;28;20114;-88
2022/06/05 15:08:08;;;;;;;7.65;5.95;;;;;;;;;;4971964;28;20055;-89
2022/06/05 15:10:42;;;;;;;7.28;6.57;;;;;;;;;;4975830;28;20069;-87
2022/06/05 15:13:23;;;;;;;5.63;3.60;;;;;;;;;;4970500;28;20101;-88
2022/06/05 15:16:06;;;;;;;3.10;1.80;;;;;;;;;;4977364;28;20031;-89